Time;durP1;ratioP1;P1;durP2;ratioP2;P2;SDS_P1;SDS_P2;PMS_P1;PMS_P2;Temp;Humidity;BMP_temperature;BMP_pressure;BME280_temperature;BME280_humidity;BME280_pressure;Samples;Min_cycle;Max_cycle;Signal;HPM_P1;HPM_P2
2022/06/02 00:00:57;;;;;;;;;16.50;16.50;;;;;16.59;100.00;101120.47;3724056;37;21281;-63
2022/06/02 00:06:10;;;;;;;;;16.75;15.25;;;;;16.58;100.00;101146.13;3723939;37;21211;-63
2022/06/02 00:11:48;;;;;;;;;17.50;17.50;;;;;16.42;100.00;101149.25;3724157;37;21099;-64
2022/06/02 00:14:48;;;;;;;;;22.00;19.75;;;;;16.44;100.00;101153.47;3724035;37;21073;-63
2022/06/02 00:17:48;;;;;;;;;20.75;18.00;;;;;16.43;100.00;101153.66;3728977;37;21075;-62
2022/06/02 00:20:49;;;;;;;;;17.00;17.00;;;;;16.43;100.00;101156.41;3724208;37;21057;-64
2022/06/02 00:32:16;;;;;;;;;15.25;14.50;;;;;16.10;100.00;101170.84;3723361;37;21139;-63
2022/06/02 00:34:55;;;;;;;;;20.75;20.25;;;;;15.93;100.00;101165.94;3722991;38;20948;-64
2022/06/02 00:38:23;;;;;;;;;16.00;16.00;;;;;16.00;100.00;101183.19;3723407;37;20948;-63
2022/06/02 00:40:54;;;;;;;;;16.75;16.75;;;;;15.95;100.00;101182.94;3723641;38;21026;-61
2022/06/02 00:46:59;;;;;;;;;16.25;16.25;;;;;15.83;100.00;101169.03;3723894;37;21201;-62
2022/06/02 00:49:54;;;;;;;;;21.00;19.50;;;;;15.86;100.00;101190.47;3723941;37;21338;-64
2022/06/02 00:52:31;;;;;;;;;19.25;19.25;;;;;15.87;100.00;101187.53;3724325;37;21267;-63
2022/06/02 01:09:28;;;;;;;;;19.00;18.25;;;;;16.01;100.00;101188.44;3723947;37;21054;-62
2022/06/02 01:12:14;;;;;;;;;17.75;17.75;;;;;16.00;100.00;101180.44;3724033;37;21238;-64
2022/06/02 01:15:17;;;;;;;;;17.00;17.00;;;;;16.00;100.00;101196.84;3724228;37;21194;-62
2022/06/02 01:17:56;;;;;;;;;18.75;18.25;;;;;15.92;100.00;101199.72;3724081;37;21263;-66
2022/06/02 01:24:10;;;;;;;;;21.50;20.50;;;;;15.60;100.00;101161.12;3724153;37;20937;-63
2022/06/02 01:26:45;;;;;;;;;17.50;17.50;;;;;15.99;100.00;101206.91;3724060;38;21196;-63
2022/06/02 01:29:38;;;;;;;;;17.00;17.00;;;;;16.02;100.00;101209.22;3723423;37;21022;-62
2022/06/02 01:32:07;;;;;;;;;13.75;13.75;;;;;16.08;100.00;101200.22;3724032;37;20937;-63
2022/06/02 01:35:14;;;;;;;;;18.00;17.00;;;;;16.14;100.00;101207.56;3724131;37;21022;-63
2022/06/02 01:38:19;;;;;;;;;18.75;18.00;;;;;16.17;100.00;101207.16;3724031;38;20962;-64
2022/06/02 01:40:50;;;;;;;;;18.50;17.50;;;;;16.12;100.00;101190.56;3723509;37;21058;-65
2022/06/02 01:43:21;;;;;;;;;21.75;20.25;;;;;16.00;100.00;101189.47;3723585;37;21105;-63
2022/06/02 01:49:03;;;;;;;;;19.75;19.75;;;;;16.22;100.00;101209.28;3730237;37;20954;-63
2022/06/02 01:52:26;;;;;;;;;21.75;20.00;;;;;16.22;100.00;101192.91;3725643;38;21261;-64
2022/06/02 02:01:13;;;;;;;;;19.50;19.50;;;;;16.26;100.00;101187.88;3723271;37;20966;-63
2022/06/02 02:09:38;;;;;;;;;18.00;18.00;;;;;16.35;100.00;101192.09;3723477;38;20976;-65
2022/06/02 02:12:29;;;;;;;;;26.25;23.50;;;;;16.26;100.00;101196.06;3723458;37;20851;-62
2022/06/02 02:18:36;;;;;;;;;21.00;21.00;;;;;16.26;100.00;101202.38;3723798;38;21008;-63
2022/06/02 02:21:44;;;;;;;;;24.75;23.50;;;;;16.21;100.00;101193.94;3724155;37;20898;-62
2022/06/02 02:24:42;;;;;;;;;18.50;17.75;;;;;16.20;100.00;101204.03;3723939;37;21130;-63
2022/06/02 02:33:24;;;;;;;;;23.50;22.50;;;;;16.00;100.00;101189.47;3723877;37;20822;-64
2022/06/02 02:38:51;;;;;;;;;20.50;18.75;;;;;16.07;100.00;101209.47;3723904;38;20891;-63
2022/06/02 02:41:33;;;;;;;;;21.25;21.25;;;;;16.04;100.00;101207.16;3723705;37;20985;-62
2022/06/02 02:44:26;;;;;;;;;23.25;22.00;;;;;16.04;100.00;101214.50;3724170;37;20916;-64
2022/06/02 02:47:05;;;;;;;;;23.50;22.75;;;;;15.99;100.00;101208.78;3724041;37;20818;-62
2022/06/02 02:49:55;;;;;;;;;21.75;21.00;;;;;15.96;100.00;101201.84;3723869;37;20886;-64
2022/06/02 02:52:29;;;;;;;;;21.50;20.00;;;;;16.08;100.00;101219.34;3724006;38;20894;-63
2022/06/02 02:58:10;;;;;;;;;21.75;21.75;;;;;16.18;100.00;101216.19;3724070;38;20892;-63
2022/06/02 03:01:02;;;;;;;;;19.50;19.50;;;;;15.98;100.00;101212.56;3723173;38;20988;-61
2022/06/02 03:03:58;;;;;;;;;25.25;25.00;;;;;16.16;100.00;101213.69;3723180;38;21115;-62
2022/06/02 03:06:28;;;;;;;;;22.00;22.00;;;;;16.32;100.00;101212.47;3723480;37;20993;-62
2022/06/02 03:08:59;;;;;;;;;23.75;22.50;;;;;16.39;100.00;101215.22;3722940;38;20688;-62
2022/06/02 03:14:18;;;;;;;;;27.25;26.50;;;;;16.51;100.00;101217.16;3722536;38;20957;-62
2022/06/02 03:16:54;;;;;;;;;22.25;21.25;;;;;16.59;100.00;101216.13;3723554;38;20975;-64
2022/06/02 03:19:37;;;;;;;;;26.00;25.00;;;;;16.57;100.00;101209.19;3723558;37;20974;-64
2022/06/02 03:25:20;;;;;;;;;27.75;26.00;;;;;16.82;100.00;101202.09;3723588;37;21015;-62
2022/06/02 03:28:15;;;;;;;;;40.75;35.75;;;;;17.02;100.00;101218.53;3723126;37;20973;-63
2022/06/02 03:31:33;;;;;;;;;22.75;22.75;;;;;17.14;100.00;101211.38;3723082;38;21087;-63
2022/06/02 03:34:22;;;;;;;;;23.50;23.00;;;;;17.16;100.00;101207.34;3723423;37;20784;-62
2022/06/02 03:37:28;;;;;;;;;25.75;25.50;;;;;17.28;100.00;101199.34;3723617;38;20952;-64
2022/06/02 03:40:30;;;;;;;;;23.00;22.50;;;;;17.25;100.00;101197.03;3724266;38;20873;-63
2022/06/02 03:43:27;;;;;;;;;24.50;24.50;;;;;17.53;100.00;101200.38;3724298;38;20711;-66
2022/06/02 03:52:02;;;;;;;;;26.00;25.75;;;;;18.18;100.00;101194.91;3724115;37;20770;-63
2022/06/02 03:54:51;;;;;;;;;25.25;24.50;;;;;18.41;100.00;101189.69;3724143;38;20831;-63
2022/06/02 03:57:26;;;;;;;;;21.75;21.75;;;;;18.50;100.00;101191.12;3723296;37;20809;-65
2022/06/02 03:59:57;;;;;;;;;21.25;20.50;;;;;18.63;100.00;101173.78;3724254;38;20695;-64
2022/06/02 04:02:42;;;;;;;;;21.50;20.75;;;;;18.75;100.00;101177.47;3724296;37;20825;-62
2022/06/02 04:05:44;;;;;;;;;23.25;22.50;;;;;18.92;100.00;101172.28;3723199;38;20868;-63
2022/06/02 04:15:18;;;;;;;;;24.50;24.00;;;;;19.33;100.00;101168.94;3724189;37;20708;-64
2022/06/02 04:17:51;;;;;;;;;20.25;19.50;;;;;19.28;100.00;101168.78;3723957;38;20751;-63
2022/06/02 04:23:47;;;;;;;;;24.50;23.75;;;;;19.46;100.00;101168.81;3723886;38;20661;-64
2022/06/02 04:29:50;;;;;;;;;21.00;20.25;;;;;19.74;100.00;101178.47;3724394;37;20669;-63
2022/06/02 04:32:41;;;;;;;;;23.25;22.50;;;;;19.60;100.00;101163.22;3723466;37;20799;-62
2022/06/02 04:35:38;;;;;;;;;21.50;21.50;;;;;19.63;100.00;101168.25;3723197;38;20746;-64
2022/06/02 04:38:23;;;;;;;;;21.50;21.50;;;;;19.74;100.00;101170.22;3723778;37;20658;-62
2022/06/02 04:41:22;;;;;;;;;22.00;20.50;;;;;19.45;100.00;101169.88;3724233;38;20637;-65
2022/06/02 04:43:57;;;;;;;;;21.00;20.25;;;;;19.52;100.00;101169.84;3724073;37;20686;-63
2022/06/02 04:46:47;;;;;;;;;21.00;20.75;;;;;19.50;100.00;101155.47;3723877;38;21118;-64
2022/06/02 04:49:22;;;;;;;;;20.00;20.00;;;;;19.46;100.00;101162.47;3724127;37;20742;-64
2022/06/02 04:54:49;;;;;;;;;19.00;18.25;;;;;19.57;100.00;101159.00;3724264;38;20718;-64
2022/06/02 04:57:27;;;;;;;;;19.00;19.00;;;;;19.57;100.00;101174.66;3724501;38;20813;-63
2022/06/02 05:03:08;;;;;;;;;17.25;17.00;;;;;19.62;100.00;101166.56;3724036;38;20655;-60
2022/06/02 05:05:46;;;;;;;;;19.50;18.75;;;;;19.62;100.00;101167.41;3723953;37;20699;-62
2022/06/02 05:08:36;;;;;;;;;20.25;20.00;;;;;19.72;100.00;101177.84;3724249;37;20654;-62
2022/06/02 05:14:53;;;;;;;;;22.00;20.75;;;;;20.09;100.00;101189.66;3723275;38;20720;-62
2022/06/02 05:17:48;;;;;;;;;15.25;15.25;;;;;20.24;100.00;101184.59;3724221;38;20669;-64
2022/06/02 05:23:20;;;;;;;;;15.50;15.25;;;;;20.25;100.00;101175.28;3723800;38;20601;-64
2022/06/02 05:26:01;;;;;;;;;17.00;16.50;;;;;20.34;100.00;101186.75;3723845;38;20656;-62
2022/06/02 05:29:03;;;;;;;;;17.00;16.25;;;;;20.52;100.00;101180.41;3723901;37;20628;-59
2022/06/02 05:32:08;;;;;;;;;20.75;19.75;;;;;20.72;100.00;101170.78;3723084;37;20581;-60
2022/06/02 05:35:14;;;;;;;;;19.00;18.75;;;;;21.02;100.00;101178.97;3723986;37;20590;-60
2022/06/02 05:38:30;;;;;;;;;18.25;17.75;;;;;20.90;100.00;101185.50;3723867;38;20694;-60
2022/06/02 05:41:30;;;;;;;;;18.00;17.25;;;;;20.86;100.00;101170.56;3723953;38;20573;-61
2022/06/02 05:44:05;;;;;;;;;18.00;17.25;;;;;21.01;100.00;101170.94;3728014;37;20588;-61
2022/06/02 05:46:37;;;;;;;;;16.75;16.75;;;;;21.11;100.00;101179.44;3724029;37;20619;-61
2022/06/02 05:49:11;;;;;;;;;17.25;17.00;;;;;21.21;100.00;101173.34;3723649;37;20631;-62
2022/06/02 05:51:42;;;;;;;;;15.25;14.50;;;;;21.12;100.00;101170.94;3723340;37;20585;-59
2022/06/02 05:54:34;;;;;;;;;19.50;19.00;;;;;21.13;100.00;101172.63;3723080;38;20634;-62
2022/06/02 06:00:11;;;;;;;;;17.25;17.25;;;;;21.41;100.00;101166.41;3723538;37;20660;-61
2022/06/02 06:03:02;;;;;;;;;17.00;16.25;;;;;21.59;100.00;101172.87;3723482;37;20665;-60
2022/06/02 06:05:43;;;;;;;;;16.75;16.75;;;;;21.63;100.00;101174.06;3723759;37;20952;-61
2022/06/02 06:08:38;;;;;;;;;20.00;17.00;;;;;21.79;100.00;101165.91;3723871;37;20643;-63
2022/06/02 06:11:35;;;;;;;;;22.75;21.50;;;;;22.05;100.00;101169.19;3723703;38;20581;-61
2022/06/02 06:14:15;;;;;;;;;16.00;16.00;;;;;22.26;100.00;101173.22;3723795;37;20600;-62
2022/06/02 06:17:13;;;;;;;;;15.75;14.75;;;;;22.35;100.00;101168.97;3723999;38;20613;-61
2022/06/02 06:20:07;;;;;;;;;17.25;17.25;;;;;22.57;100.00;101169.09;3723780;37;20698;-63
2022/06/02 06:23:07;;;;;;;;;15.00;14.75;;;;;22.68;100.00;101173.72;3723345;37;20726;-61
2022/06/02 06:26:12;;;;;;;;;13.50;13.00;;;;;22.68;100.00;101173.72;3728913;37;20708;-60
2022/06/02 06:29:12;;;;;;;;;13.50;13.50;;;;;22.76;100.00;101165.87;3723966;37;20703;-64
2022/06/02 06:31:53;;;;;;;;;13.00;12.50;;;;;22.66;100.00;101165.69;3723438;38;20773;-62
2022/06/02 06:34:47;;;;;;;;;14.25;14.25;;;;;22.83;100.00;101174.00;3724152;37;20658;-62
2022/06/02 06:38:15;;;;;;;;;13.25;13.25;;;;;23.01;100.00;101175.66;3723448;37;20600;-62
2022/06/02 06:46:54;;;;;;;;;16.25;16.00;;;;;23.09;100.00;101166.97;3724212;38;20577;-63
2022/06/02 06:49:29;;;;;;;;;18.25;17.75;;;;;23.33;100.00;101167.62;3724152;37;20531;-62
2022/06/02 06:52:03;;;;;;;;;18.00;18.00;;;;;23.49;100.00;101166.75;3724264;37;20640;-63
2022/06/02 07:00:16;;;;;;;;;15.25;15.25;;;;;23.45;100.00;101168.34;3723965;38;20552;-62
2022/06/02 07:02:47;;;;;;;;;15.25;15.25;;;;;23.62;100.00;101162.81;3724897;37;20564;-62
2022/06/02 07:08:23;;;;;;;;;14.25;14.25;;;;;23.95;100.00;101164.59;3724199;37;20780;-63
2022/06/02 07:14:30;;;;;;;;;13.75;13.75;;;;;23.89;100.00;101151.84;3724130;37;20559;-63
2022/06/02 07:17:03;;;;;;;;;13.00;13.00;;;;;23.98;100.00;101161.31;3723460;37;20528;-62
2022/06/02 07:20:09;;;;;;;;;15.25;15.25;;;;;24.03;100.00;101156.69;3723160;37;20719;-62
2022/06/02 07:22:42;;;;;;;;;13.25;13.25;;;;;24.17;100.00;101156.31;3724043;37;20622;-62
2022/06/02 07:25:16;;;;;;;;;14.00;13.00;;;;;24.27;100.00;101156.44;3723981;37;20633;-62
2022/06/02 07:30:57;;;;;;;;;12.25;11.25;;;;;24.35;100.00;101158.75;3724197;37;20668;-63
2022/06/02 07:33:47;;;;;;;;;12.00;11.75;;;;;24.35;100.00;101153.22;3723991;38;20678;-61
2022/06/02 07:36:30;;;;;;;;;11.00;11.00;;;;;24.48;100.00;101165.78;3723860;37;20696;-61
2022/06/02 07:39:19;;;;;;;;;10.50;10.00;;;;;24.68;100.00;101160.44;3723785;37;20597;-61
2022/06/02 07:42:18;;;;;;;;;11.25;11.25;;;;;24.73;100.00;101160.50;3723670;37;20648;-63
2022/06/02 07:45:14;;;;;;;;;12.75;12.75;;;;;24.81;100.00;101156.41;3723423;37;20629;-63
2022/06/02 07:47:49;;;;;;;;;12.25;11.50;;;;;24.89;100.00;101154.00;3724659;37;21575;-60
2022/06/02 07:50:33;;;;;;;;;12.00;11.75;;;;;25.01;100.00;101153.81;3724017;38;21459;-61
2022/06/02 07:53:29;;;;;;;;;13.25;12.50;;;;;25.22;100.00;101152.88;3723788;37;20818;-60
2022/06/02 07:56:28;;;;;;;;;13.50;13.50;;;;;25.22;100.00;101152.88;3723848;38;21770;-60
2022/06/02 07:59:25;;;;;;;;;12.00;11.75;;;;;25.45;100.00;101150.81;3726045;37;20479;-61
2022/06/02 08:02:30;;;;;;;;;9.25;8.50;;;;;25.60;100.00;101151.72;3723773;37;21500;-61
2022/06/02 08:05:31;;;;;;;;;12.25;11.50;;;;;25.71;100.00;101145.16;3723876;37;21343;-62
2022/06/02 08:08:04;;;;;;;;;11.00;10.25;;;;;25.78;100.00;101144.91;3724058;37;21683;-60
2022/06/02 08:14:16;;;;;;;;;11.50;11.50;;;;;25.94;100.00;101154.16;3727267;38;32149;-62
2022/06/02 08:17:23;;;;;;;;;12.50;12.00;;;;;25.90;100.00;101153.84;3727183;38;21088;-62
2022/06/02 08:20:20;;;;;;;;;13.00;12.50;;;;;25.79;100.00;101141.03;3726929;37;21161;-64
2022/06/02 08:23:17;;;;;;;;;11.25;10.75;;;;;26.10;100.00;101144.75;3726974;37;21011;-60
2022/06/02 08:26:26;;;;;;;;;15.50;15.50;;;;;26.44;100.00;101141.53;3727138;37;21045;-63
2022/06/02 08:29:01;;;;;;;;;11.00;11.00;;;;;26.64;100.00;101139.59;3726742;38;21103;-64
2022/06/02 08:31:32;;;;;;;;;12.50;11.50;;;;;26.63;100.00;101132.37;3726165;38;21093;-62
2022/06/02 08:37:28;;;;;;;;;15.00;14.50;;;;;26.75;100.00;101126.56;3726863;37;21088;-62
2022/06/02 08:40:22;;;;;;;;;12.25;11.25;;;;;26.97;100.00;101134.66;3726801;38;21010;-62
2022/06/02 08:46:33;;;;;;;;;15.25;13.00;;;;;26.82;100.00;101126.28;3727036;37;21034;-61
2022/06/02 08:49:59;;;;;;;;;13.00;12.50;;;;;26.93;100.00;101128.78;3727218;37;20932;-60
2022/06/02 08:52:30;;;;;;;;;12.75;12.00;;;;;27.07;100.00;101131.84;3726394;38;20973;-61
2022/06/02 08:55:28;;;;;;;;;12.50;12.50;;;;;27.17;100.00;101128.22;3726134;37;21111;-60
2022/06/02 08:58:40;;;;;;;;;12.25;12.00;;;;;27.09;100.00;101135.16;3726176;37;20915;-62
2022/06/02 09:03:45;;;;;;;;;11.75;11.75;;;;;27.37;99.95;101128.19;3726011;38;21246;-62
2022/06/02 09:06:16;;;;;;;;;12.00;12.00;;;;;27.25;99.46;101125.69;3725908;37;21130;-61
2022/06/02 09:08:50;;;;;;;;;12.00;12.00;;;;;27.26;98.88;101120.97;3726062;38;20967;-61
2022/06/02 09:17:07;;;;;;;;;12.50;12.00;;;;;27.95;96.30;101117.41;3726384;38;21022;-61
2022/06/02 09:20:26;;;;;;;;;10.00;10.00;;;;;28.10;97.38;101117.31;3727002;37;21316;-64
2022/06/02 09:23:25;;;;;;;;;12.50;11.75;;;;;28.02;95.46;101109.59;3726506;37;21015;-63
2022/06/02 09:26:03;;;;;;;;;9.00;9.00;;;;;28.02;91.98;101112.38;3727437;37;21008;-63
2022/06/02 09:28:33;;;;;;;;;9.25;9.25;;;;;28.05;92.89;101099.84;3726898;38;20998;-63
2022/06/02 09:31:07;;;;;;;;;10.25;10.25;;;;;28.20;93.35;101103.34;3731708;38;20885;-62
2022/06/02 09:45:52;;;;;;;;;12.75;12.75;;;;;28.23;88.23;101105.59;3726733;37;20782;-61
2022/06/02 09:48:37;;;;;;;;;12.00;12.00;;;;;28.30;86.23;101099.69;3727295;37;20919;-62
2022/06/02 09:51:28;;;;;;;;;9.25;9.25;;;;;28.51;86.38;101090.09;3727066;38;20915;-61
2022/06/02 09:54:41;;;;;;;;;10.25;10.00;;;;;28.63;85.67;101096.09;3727018;38;20910;-63
2022/06/02 09:57:56;;;;;;;;;11.00;9.25;;;;;28.91;80.96;101097.28;3727009;37;20857;-62
2022/06/02 10:01:10;;;;;;;;;8.25;8.25;;;;;29.11;80.10;101090.69;3727035;37;20927;-60
2022/06/02 10:04:17;;;;;;;;;10.00;10.00;;;;;28.95;81.14;101091.94;3726951;37;21128;-60
2022/06/02 10:13:21;;;;;;;;;8.75;8.75;;;;;29.29;77.72;101075.97;3727480;38;21080;-63
2022/06/02 10:19:22;;;;;;;;;10.67;10.67;;;;;29.39;78.91;101065.81;3727255;38;20969;-62
2022/06/02 10:22:20;;;;;;;;;10.50;10.50;;;;;29.64;79.62;101060.75;3727246;38;20857;-61
2022/06/02 10:28:14;;;;;;;;;9.75;9.75;;;;;30.06;76.45;101063.87;3726637;37;20694;-62
2022/06/02 10:31:11;;;;;;;;;10.50;10.50;;;;;30.18;73.80;101053.87;3727059;38;20790;-62
2022/06/02 10:34:27;;;;;;;;;10.75;10.75;;;;;30.27;70.15;101068.00;3726781;38;20801;-62
2022/06/02 10:37:33;;;;;;;;;7.50;7.50;;;;;30.10;64.25;101045.38;3726880;38;20806;-64
2022/06/02 10:43:29;;;;;;;;;9.75;9.75;;;;;30.32;73.48;101048.34;3726227;38;20784;-63
2022/06/02 10:51:54;;;;;;;;;12.00;12.00;;;;;30.44;76.45;101043.13;3726427;38;20863;-63
2022/06/02 10:55:00;;;;;;;;;12.50;11.50;;;;;30.28;79.06;101039.75;3727115;38;20828;-63
2022/06/02 10:58:06;;;;;;;;;11.00;10.00;;;;;30.40;76.59;101035.66;3727326;38;20815;-64
2022/06/02 11:01:14;;;;;;;;;13.00;13.00;;;;;30.74;77.64;101036.19;3727029;37;20796;-63
2022/06/02 11:07:22;;;;;;;;;7.00;7.00;;;;;30.90;76.28;101026.41;3731093;37;20707;-65
2022/06/02 11:10:02;;;;;;;;;11.00;10.25;;;;;31.16;71.33;101023.16;3726916;37;20916;-64
2022/06/02 11:12:54;;;;;;;;;9.25;9.25;;;;;31.19;71.31;101019.75;3727038;38;20716;-64
2022/06/02 11:15:29;;;;;;;;;8.75;8.75;;;;;31.35;67.20;101021.06;3726934;38;20764;-64
2022/06/02 11:18:06;;;;;;;;;9.25;8.00;;;;;31.28;64.50;101018.69;3727476;37;20790;-64
2022/06/02 11:20:49;;;;;;;;;30.00;27.00;;;;;31.24;63.75;101030.78;3726390;38;20960;-64
2022/06/02 11:23:23;;;;;;;;;11.75;11.75;;;;;31.06;68.23;101018.56;3726874;37;20738;-64
2022/06/02 11:32:11;;;;;;;;;8.50;8.50;;;;;30.81;67.43;101010.66;3726923;38;20681;-64
2022/06/02 11:35:21;;;;;;;;;9.00;8.00;;;;;30.97;64.13;100998.03;3726970;38;20776;-64
2022/06/02 11:38:11;;;;;;;;;8.50;8.50;;;;;30.93;67.62;100988.63;3727318;37;20608;-63
2022/06/02 11:41:22;;;;;;;;;10.00;10.00;;;;;30.98;68.67;101002.50;3726482;38;20665;-62
2022/06/02 11:44:46;;;;;;;;;9.75;9.25;;;;;30.82;73.06;101001.12;3726418;37;20939;-63
2022/06/02 11:47:45;;;;;;;;;11.50;10.50;;;;;30.79;69.20;100987.78;3726544;38;20639;-64
2022/06/02 11:50:42;;;;;;;;;10.75;9.75;;;;;30.72;73.51;100984.56;3727173;38;20711;-61
2022/06/02 11:53:37;;;;;;;;;9.50;9.50;;;;;30.83;68.65;100989.66;3726194;37;20848;-63
2022/06/02 11:59:38;;;;;;;;;7.25;7.25;;;;;30.87;61.26;100976.72;3727109;37;20774;-63
2022/06/02 12:02:32;;;;;;;;;8.25;8.25;;;;;30.58;70.09;100970.59;3726986;38;20621;-64
2022/06/02 12:08:23;;;;;;;;;6.00;6.00;;;;;30.88;56.16;100957.97;3726435;38;20730;-63
2022/06/02 12:10:57;;;;;;;;;5.50;5.50;;;;;31.04;54.71;100939.75;3726260;38;20604;-62
2022/06/02 12:13:39;;;;;;;;;7.25;7.25;;;;;31.04;58.53;100938.94;3726676;37;20681;-63
2022/06/02 12:22:40;;;;;;;;;10.00;9.25;;;;;31.06;60.82;100945.87;3727006;37;20577;-63
2022/06/02 12:28:59;;;;;;;;;7.00;7.00;;;;;31.75;56.92;100943.78;3727057;37;20841;-63
2022/06/02 12:31:51;;;;;;;;;10.00;10.00;;;;;31.68;56.69;100929.44;3727176;38;20577;-63
2022/06/02 12:34:58;;;;;;;;;13.75;13.25;;;;;31.90;57.04;100926.62;3727032;37;20658;-63
2022/06/02 12:37:29;;;;;;;;;9.25;9.25;;;;;32.17;54.77;100927.66;3727290;37;20577;-63
2022/06/02 12:40:15;;;;;;;;;9.75;9.00;;;;;32.04;53.37;100926.56;3732548;37;20511;-62
2022/06/02 12:43:28;;;;;;;;;11.00;10.00;;;;;31.78;54.24;100919.94;3727770;38;20656;-66
2022/06/02 12:48:53;;;;;;;;;7.00;7.00;;;;;31.37;53.39;100920.06;3727463;38;20587;-63
2022/06/02 12:52:09;;;;;;;;;4.00;4.00;;;;;31.52;55.22;100922.50;3727083;38;20621;-65
2022/06/02 12:55:14;;;;;;;;;11.50;11.50;;;;;31.52;54.75;100925.31;3728029;37;20784;-65
2022/06/02 12:57:59;;;;;;;;;7.25;7.25;;;;;31.48;53.82;100911.13;3726572;37;20576;-64
2022/06/02 13:03:55;;;;;;;;;7.50;7.50;;;;;31.62;53.18;100908.28;3724268;37;20689;-63
2022/06/02 13:07:16;;;;;;;;;9.00;8.50;;;;;32.15;54.60;100921.53;3724161;38;20515;-64
2022/06/02 13:10:30;;;;;;;;;8.00;8.00;;;;;32.62;53.49;100907.97;3723936;38;20832;-62
2022/06/02 13:13:15;;;;;;;;;12.00;12.00;;;;;32.75;48.50;100898.63;3724269;37;20487;-63
2022/06/02 13:16:07;;;;;;;;;11.00;11.00;;;;;33.06;45.82;100904.19;3723947;38;20676;-65
2022/06/02 13:24:35;;;;;;;;;10.00;10.00;;;;;33.48;42.15;100903.44;3724040;37;20618;-63
2022/06/02 13:27:19;;;;;;;;;6.50;6.00;;;;;32.92;43.63;100900.69;3723889;38;20530;-64
2022/06/02 13:33:35;;;;;;;;;6.75;6.75;;;;;32.55;45.71;100898.06;3723951;38;20566;-62
2022/06/02 13:39:06;;;;;;;;;8.00;8.00;;;;;32.33;47.13;100895.31;3723922;37;20468;-64
2022/06/02 13:41:59;;;;;;;;;7.50;7.25;;;;;32.29;47.76;100902.69;3723864;37;20838;-64
2022/06/02 13:44:54;;;;;;;;;7.75;7.75;;;;;32.10;46.26;100886.09;3724013;37;20586;-65
2022/06/02 13:47:58;;;;;;;;;8.00;7.25;;;;;32.01;46.85;100888.00;3723985;38;20499;-63
2022/06/02 13:50:29;;;;;;;;;9.00;8.00;;;;;31.93;48.51;100872.81;3723984;37;20516;-64
2022/06/02 13:53:16;;;;;;;;;7.50;7.50;;;;;32.02;46.24;100870.06;3723321;37;20539;-65
2022/06/02 13:59:06;;;;;;;;;8.25;8.25;;;;;31.98;45.05;100873.81;3724489;37;20451;-62
2022/06/02 14:01:56;;;;;;;;;7.00;7.00;;;;;31.85;44.49;100867.97;3724153;38;20388;-63
2022/06/02 14:07:50;;;;;;;;;8.00;7.00;;;;;31.84;45.28;100871.91;3724017;37;20445;-64
2022/06/02 14:11:02;;;;;;;;;7.25;7.25;;;;;31.79;45.43;100860.84;3724258;37;20437;-67
2022/06/02 14:14:21;;;;;;;;;16.50;15.75;;;;;32.14;46.45;100875.91;3726518;38;20555;-63
2022/06/02 14:17:15;;;;;;;;;11.75;11.75;;;;;32.82;45.74;100870.97;3724223;38;20490;-63
2022/06/02 14:25:50;;;;;;;;;9.00;7.75;;;;;32.98;43.43;100869.34;3724129;38;20662;-64
2022/06/02 14:28:21;;;;;;;;;10.00;9.75;;;;;32.92;44.13;100876.28;3723958;38;20482;-65
2022/06/02 14:31:04;;;;;;;;;5.25;5.25;;;;;32.82;45.12;100887.78;3723882;38;20447;-64
2022/06/02 14:33:36;;;;;;;;;8.00;8.00;;;;;32.70;43.68;100884.75;3723853;38;20361;-64
2022/06/02 14:36:25;;;;;;;;;10.00;10.00;;;;;32.66;43.58;100869.75;3723944;37;20624;-63
2022/06/02 14:41:58;;;;;;;;;11.25;10.00;;;;;32.45;43.83;100845.09;3723765;37;20457;-62
2022/06/02 14:47:38;;;;;;;;;7.00;7.00;;;;;32.58;44.57;100841.38;3723651;38;20493;-65
2022/06/02 14:50:34;;;;;;;;;13.50;10.75;;;;;32.47;44.63;100861.59;3724166;37;20459;-63
2022/06/02 14:53:41;;;;;;;;;7.00;7.00;;;;;32.35;45.31;100870.59;3723546;38;20416;-63
2022/06/02 14:56:32;;;;;;;;;7.75;6.75;;;;;32.26;45.54;100861.31;3723977;37;20403;-63
2022/06/02 15:04:41;;;;;;;;;13.00;13.00;;;;;31.95;45.49;100849.25;3723991;38;20326;-63
2022/06/02 15:07:30;;;;;;;;;11.50;10.75;;;;;31.86;46.26;100857.59;3724068;37;20520;-62
2022/06/02 15:10:36;;;;;;;;;23.00;21.50;;;;;31.75;46.08;100859.00;3724467;37;20378;-61
2022/06/02 15:13:48;;;;;;;;;24.75;24.50;;;;;31.70;46.29;100864.75;3723912;37;20386;-62
2022/06/02 15:16:41;;;;;;;;;21.75;20.75;;;;;31.73;45.70;100859.31;3723685;37;20503;-62
2022/06/02 15:24:50;;;;;;;;;11.25;11.25;;;;;31.68;46.48;100855.84;3723631;38;20410;-64
2022/06/02 15:28:03;;;;;;;;;7.50;7.50;;;;;31.55;46.08;100849.12;3724569;38;20574;-63
2022/06/02 15:33:34;;;;;;;;;10.50;10.50;;;;;31.34;48.16;100848.78;3724243;38;20360;-63
2022/06/02 15:36:09;;;;;;;;;13.00;12.75;;;;;31.17;49.04;100826.28;3723547;37;20525;-62
2022/06/02 15:38:59;;;;;;;;;17.75;17.25;;;;;31.25;50.57;100837.50;3724142;37;20472;-62
2022/06/02 15:45:14;;;;;;;;;10.00;10.00;;;;;30.97;51.95;100819.13;3727601;38;20600;-65
2022/06/02 15:47:49;;;;;;;;;10.50;10.50;;;;;30.75;53.79;100819.91;3723315;38;20587;-63
2022/06/02 15:50:25;;;;;;;;;9.25;9.25;;;;;30.49;55.15;100813.16;3723582;37;20392;-64
2022/06/02 15:53:08;;;;;;;;;17.25;17.00;;;;;30.31;56.31;100806.53;3724482;37;20381;-62
2022/06/02 15:55:43;;;;;;;;;8.75;8.50;;;;;30.30;55.87;100811.28;3724367;38;20320;-63
2022/06/02 15:58:14;;;;;;;;;14.50;14.50;;;;;30.32;55.46;100807.38;3723352;37;20368;-64
2022/06/02 16:01:03;;;;;;;;;11.75;11.75;;;;;30.22;55.61;100811.19;3723051;37;20430;-61
2022/06/02 16:07:15;;;;;;;;;11.25;11.00;;;;;30.17;56.88;100816.87;3723902;37;20369;-62
2022/06/02 16:19:46;;;;;;;;;9.25;9.25;;;;;29.93;59.38;100823.44;3723328;37;20318;-64
2022/06/02 16:25:25;;;;;;;;;15.50;14.00;;;;;29.85;61.56;100829.72;3724456;38;20251;-64
2022/06/02 16:39:39;;;;;;;;;9.25;9.25;;;;;29.48;68.84;100843.75;3724006;38;20409;-63
2022/06/02 16:42:24;;;;;;;;;10.50;10.50;;;;;29.24;76.01;100850.19;3723991;38;20321;-64
2022/06/02 16:48:17;;;;;;;;;13.00;13.00;;;;;28.65;85.54;100847.91;3723684;38;20262;-65
2022/06/02 16:51:20;;;;;;;;;16.50;16.50;;;;;28.32;89.52;100849.69;3723796;37;20268;-61
2022/06/02 16:54:10;;;;;;;;;17.75;17.00;;;;;28.11;93.52;100853.75;3724036;38;20294;-64
2022/06/02 17:00:03;;;;;;;;;14.75;14.75;;;;;27.83;96.53;100872.97;3724132;38;20417;-59
2022/06/02 17:02:56;;;;;;;;;15.50;15.50;;;;;27.77;97.60;100871.34;3723904;38;21278;-61
2022/06/02 17:05:59;;;;;;;;;17.25;16.25;;;;;27.66;99.20;100883.66;3723994;38;21448;-61
2022/06/02 17:09:16;;;;;;;;;17.00;17.00;;;;;27.52;100.00;100885.41;3724052;38;21200;-65
2022/06/02 17:12:12;;;;;;;;;18.75;17.25;;;;;27.34;100.00;100886.91;3724237;38;21383;-62
2022/06/02 17:15:28;;;;;;;;;16.25;16.00;;;;;27.12;100.00;100886.47;3726752;38;21352;-61
2022/06/02 17:18:30;;;;;;;;;18.25;17.00;;;;;26.91;100.00;100882.97;3724076;38;21449;-64
2022/06/02 17:21:35;;;;;;;;;11.75;11.75;;;;;26.49;100.00;100889.78;3723395;37;21352;-60
2022/06/02 17:24:05;;;;;;;;;21.25;21.00;;;;;26.33;100.00;100904.78;3724128;37;21242;-61
2022/06/02 17:27:01;;;;;;;;;19.75;19.25;;;;;26.25;100.00;100903.38;3723618;38;21228;-63
2022/06/02 17:38:34;;;;;;;;;22.00;20.75;;;;;25.63;100.00;100898.09;3723807;38;21213;-62
2022/06/02 17:41:12;;;;;;;;;17.75;17.00;;;;;25.51;100.00;100890.03;3723907;38;21221;-61
2022/06/02 17:49:51;;;;;;;;;18.50;18.25;;;;;25.37;100.00;100925.78;3723731;38;21253;-60
2022/06/02 17:52:47;;;;;;;;;12.75;9.75;;;;;24.59;100.00;100965.53;3723897;37;21186;-62
2022/06/02 17:55:34;;;;;;;;;8.75;8.75;;;;;24.04;100.00;100970.34;3724152;38;21248;-59